Time;durP1;ratioP1;P1;durP2;ratioP2;P2;SDS_P1;SDS_P2;PMS_P1;PMS_P2;Temp;Humidity;BMP_temperature;BMP_pressure;BME280_temperature;BME280_humidity;BME280_pressure;Samples;Min_cycle;Max_cycle;Signal;HPM_P1;HPM_P2
2023/06/04 00:01:13;;;;;;;7.25;5.72;;;;;;;-148.23;100.00;56998.88;4978464;28;20051;-65
2023/06/04 00:03:40;;;;;;;9.23;5.10;;;;;;;-148.23;100.00;56998.88;4994667;28;20042;-65
2023/06/04 00:06:07;;;;;;;5.63;5.07;;;;;;;-148.23;100.00;56998.88;4996819;28;20050;-66
2023/06/04 00:08:34;;;;;;;8.40;5.18;;;;;;;15.65;88.60;96589.31;4996687;28;20101;-66
2023/06/04 00:11:01;;;;;;;7.22;5.20;;;;;;;15.40;91.79;96596.00;4994740;28;20042;-63
2023/06/04 00:13:30;;;;;;;6.97;5.10;;;;;;;-148.23;100.00;56998.88;4996770;28;20112;-64
2023/06/04 00:15:57;;;;;;;6.25;4.45;;;;;;;15.39;92.06;96604.84;4996569;28;20506;-65
2023/06/04 00:18:24;;;;;;;6.82;4.82;;;;;;;15.39;92.39;96602.22;4996733;28;20096;-62
2023/06/04 00:20:51;;;;;;;5.25;4.40;;;;;;;15.41;92.38;96602.97;4994980;28;20050;-66
2023/06/04 00:23:18;;;;;;;10.45;4.68;;;;;;;15.44;92.33;96608.06;4996471;28;20078;-61
2023/06/04 00:25:45;;;;;;;10.55;5.15;;;;;;;-148.23;100.00;56998.88;4996378;28;20057;-65
2023/06/04 00:28:12;;;;;;;5.22;4.72;;;;;;;-148.23;100.00;56998.88;4995907;28;20085;-63
2023/06/04 00:30:41;;;;;;;6.97;4.90;;;;;;;-148.23;100.00;56998.88;4996562;28;20046;-62
2023/06/04 00:33:08;;;;;;;7.18;4.50;;;;;;;-148.23;100.00;56998.88;4996259;28;20046;-63
2023/06/04 00:35:35;;;;;;;7.95;4.40;;;;;;;-148.23;100.00;56998.88;4996264;28;20050;-62
2023/06/04 00:38:02;;;;;;;5.43;4.93;;;;;;;-148.23;100.00;56998.88;4996046;28;20102;-61
2023/06/04 00:40:29;;;;;;;8.20;5.00;;;;;;;-148.23;100.00;56998.88;4994575;28;20054;-65
2023/06/04 00:42:56;;;;;;;7.63;6.15;;;;;;;-148.23;100.00;56998.88;4996304;28;20046;-65
2023/06/04 00:45:25;;;;;;;7.72;5.30;;;;;;;15.67;88.69;96595.38;4994087;28;20129;-61
2023/06/04 00:47:55;;;;;;;4.70;4.28;;;;;;;15.54;90.60;96585.50;4996220;28;20053;-64
2023/06/04 00:50:22;;;;;;;8.70;4.72;;;;;;;15.44;90.65;96586.97;4994186;28;20054;-66
2023/06/04 00:52:51;;;;;;;5.63;4.47;;;;;;;15.43;91.10;96584.44;4995967;28;20047;-63
2023/06/04 00:55:18;;;;;;;5.35;4.85;;;;;;;-148.23;100.00;56998.88;4995867;28;20507;-63
2023/06/04 00:57:46;;;;;;;9.20;5.53;;;;;;;15.45;92.44;96586.06;4995808;28;20046;-61
2023/06/04 01:00:13;;;;;;;5.68;5.07;;;;;;;-148.23;100.00;56998.88;4994173;28;20046;-63
2023/06/04 01:02:43;;;;;;;9.05;4.72;;;;;;;-148.23;100.00;56998.88;4995802;28;20492;-64
2023/06/04 01:05:19;;;;;;;5.15;4.40;;;;;;;-148.23;100.00;56998.88;4995689;28;20042;-63
2023/06/04 01:07:47;;;;;;;8.88;4.78;;;;;;;-148.23;100.00;56998.88;4995727;28;20137;-61
2023/06/04 01:10:15;;;;;;;9.48;5.10;;;;;;;15.63;90.26;96585.94;4995293;28;20065;-66
2023/06/04 01:12:42;;;;;;;10.48;4.80;;;;;;;15.77;88.99;96588.63;4994003;28;20129;-64
2023/06/04 01:15:11;;;;;;;5.47;4.72;;;;;;;15.59;90.46;96589.69;4995630;28;20047;-61
2023/06/04 01:17:41;;;;;;;8.07;5.47;;;;;;;-148.23;100.00;56998.88;4995555;28;20125;-66
2023/06/04 01:20:32;;;;;;;6.22;4.40;;;;;;;-148.23;100.00;56998.88;4995527;28;20133;-65
2023/06/04 01:23:35;;;;;;;5.60;5.10;;;;;;;15.59;90.52;96593.16;4993183;28;20451;-63
2023/06/04 01:26:03;;;;;;;8.35;4.75;;;;;;;15.60;90.27;96589.59;4942552;28;20093;-62
2023/06/04 01:28:32;;;;;;;7.78;4.68;;;;;;;15.65;89.91;96589.31;4975765;28;20042;-61
2023/06/04 01:31:01;;;;;;;6.15;5.07;;;;;;;15.51;91.64;96584.84;4975917;28;20046;-62
2023/06/04 01:33:28;;;;;;;6.13;4.57;;;;;;;-148.23;100.00;56998.88;4975791;28;20065;-62
2023/06/04 01:35:57;;;;;;;4.88;4.47;;;;;;;-148.23;100.00;56998.88;4975717;28;20089;-63
2023/06/04 01:38:24;;;;;;;8.65;5.00;;;;;;;15.46;91.35;96598.28;4976554;28;20058;-63
2023/06/04 01:40:55;;;;;;;9.38;4.65;;;;;;;15.50;91.19;96591.91;4975652;28;20050;-63
2023/06/04 01:43:23;;;;;;;5.20;4.70;;;;;;;-148.23;100.00;56998.88;4975704;28;20057;-63
2023/06/04 01:45:50;;;;;;;5.80;5.30;;;;;;;15.57;90.82;96602.97;4975493;28;20043;-65
2023/06/04 01:48:17;;;;;;;5.20;4.70;;;;;;;-148.23;100.00;56998.88;4976392;28;20042;-66
2023/06/04 01:50:44;;;;;;;5.50;5.00;;;;;;;15.76;88.10;96604.53;4975289;28;20078;-63
2023/06/04 01:53:13;;;;;;;5.40;4.80;;;;;;;15.48;90.34;96603.47;4975269;28;20047;-63
2023/06/04 01:55:40;;;;;;;9.48;4.75;;;;;;;15.63;89.02;96604.41;4975329;28;20049;-66
2023/06/04 01:58:09;;;;;;;7.82;5.07;;;;;;;15.45;90.41;96611.56;4975221;28;20102;-65
2023/06/04 02:00:35;;;;;;;5.80;4.60;;;;;;;15.36;90.75;96618.19;4976275;28;20492;-65
2023/06/04 02:03:02;;;;;;;11.68;5.15;;;;;;;15.36;90.41;96613.78;4975219;28;20145;-64
2023/06/04 02:05:29;;;;;;;7.60;5.18;;;;;;;-148.23;100.00;56998.88;4975144;28;20057;-64
2023/06/04 02:07:57;;;;;;;6.18;5.03;;;;;;;-148.23;100.00;56998.88;4975092;28;20055;-61
2023/06/04 02:10:25;;;;;;;7.28;5.03;;;;;;;-148.23;100.00;56998.88;4976073;28;20093;-65
2023/06/04 02:12:56;;;;;;;6.32;4.93;;;;;;;15.70;86.78;96632.09;4975016;28;20113;-64
2023/06/04 02:15:24;;;;;;;8.95;5.28;;;;;;;15.38;91.29;96632.16;4975082;28;20051;-62
2023/06/04 02:17:52;;;;;;;6.03;4.78;;;;;;;15.31;92.30;96636.91;4974314;28;20051;-62
2023/06/04 02:20:19;;;;;;;8.00;5.18;;;;;;;15.31;93.28;96633.41;4994104;28;20046;-60
2023/06/04 02:22:46;;;;;;;10.70;5.90;;;;;;;-148.23;100.00;56998.88;4994383;28;20058;-63
2023/06/04 02:25:13;;;;;;;5.13;4.72;;;;;;;15.32;93.15;96638.59;4994316;28;20460;-65
2023/06/04 02:27:41;;;;;;;8.10;5.05;;;;;;;15.28;92.80;96632.66;4994202;28;20050;-63
2023/06/04 02:30:10;;;;;;;7.13;5.22;;;;;;;-148.23;100.00;56998.88;4992425;28;20133;-63
2023/06/04 02:32:37;;;;;;;6.25;5.07;;;;;;;15.31;93.37;96639.53;4994274;28;20074;-65
2023/06/04 02:35:04;;;;;;;7.38;4.85;;;;;;;15.51;90.53;96641.03;4994536;28;20459;-64
2023/06/04 02:37:31;;;;;;;12.55;5.22;;;;;;;15.26;91.99;96644.22;4993836;28;20201;-63
2023/06/04 02:39:58;;;;;;;8.45;5.10;;;;;;;15.16;92.40;96643.88;4993982;28;20042;-63
2023/06/04 02:42:25;;;;;;;8.05;5.68;;;;;;;15.13;93.58;96644.91;4992242;28;20151;-65
2023/06/04 02:44:54;;;;;;;5.30;4.82;;;;;;;15.14;94.61;96651.84;4993998;28;20046;-64
2023/06/04 02:47:22;;;;;;;5.65;4.95;;;;;;;15.19;94.73;96648.97;4994015;28;20499;-62
2023/06/04 02:49:49;;;;;;;5.63;5.13;;;;;;;15.19;95.44;96645.47;4993768;28;20081;-63
2023/06/04 02:52:16;;;;;;;12.27;5.35;;;;;;;15.23;94.93;96647.88;4994046;28;20519;-65
2023/06/04 02:54:43;;;;;;;9.95;5.38;;;;;;;-148.23;100.00;56998.88;4991827;28;20054;-62
2023/06/04 02:57:10;;;;;;;7.82;4.95;;;;;;;15.20;93.99;96644.56;4993912;28;20081;-65
2023/06/04 02:59:37;;;;;;;9.65;5.25;;;;;;;15.24;93.68;96646.94;4993914;28;20457;-65
2023/06/04 03:02:07;;;;;;;7.53;5.93;;;;;;;15.20;94.15;96650.66;4993185;28;20047;-64
2023/06/04 03:04:35;;;;;;;13.93;5.20;;;;;;;15.27;94.14;96651.19;4993703;28;20134;-64
2023/06/04 03:07:02;;;;;;;9.07;5.30;;;;;;;15.22;94.61;96653.22;4993665;28;20122;-65
2023/06/04 03:09:31;;;;;;;12.77;5.05;;;;;;;15.21;94.95;96651.53;4993573;28;20137;-62
2023/06/04 03:12:01;;;;;;;6.60;5.05;;;;;;;15.23;94.81;96658.41;4993179;28;20058;-61
2023/06/04 03:14:31;;;;;;;6.50;5.22;;;;;;;15.24;94.68;96656.63;4993661;28;20559;-64
2023/06/04 03:17:07;;;;;;;8.75;5.10;;;;;;;-148.23;100.00;56998.88;4993634;28;20046;-61
2023/06/04 03:19:36;;;;;;;8.48;4.20;;;;;;;15.30;94.48;96661.56;4993681;28;20055;-63
2023/06/04 03:22:05;;;;;;;7.82;4.72;;;;;;;15.32;94.40;96657.03;4991763;28;20484;-62
2023/06/04 03:24:36;;;;;;;9.10;5.03;;;;;;;-148.23;100.00;56998.88;4993470;28;20046;-64
2023/06/04 03:27:04;;;;;;;6.88;5.20;;;;;;;15.41;93.07;96663.59;4993494;28;20058;-65
2023/06/04 03:29:32;;;;;;;12.48;4.70;;;;;;;15.36;94.05;96668.28;4995687;28;20054;-63
2023/06/04 03:31:59;;;;;;;5.43;4.88;;;;;;;15.31;93.70;96672.94;4997367;28;20053;-63
2023/06/04 03:34:26;;;;;;;7.43;5.18;;;;;;;15.29;93.61;96673.88;4991807;28;20050;-65
2023/06/04 03:36:55;;;;;;;5.10;4.53;;;;;;;15.34;93.52;96676.25;4997054;28;20057;-66
2023/06/04 03:39:23;;;;;;;6.88;4.97;;;;;;;15.45;92.37;96670.41;4997389;28;20490;-61
2023/06/04 03:41:50;;;;;;;8.85;5.38;;;;;;;15.53;92.41;96675.22;4997262;28;20133;-63
2023/06/04 03:44:18;;;;;;;5.00;4.60;;;;;;;15.44;93.63;96673.97;4997201;28;20046;-67
2023/06/04 03:46:46;;;;;;;11.32;6.32;;;;;;;15.40;93.92;96677.72;4988561;28;20051;-67
2023/06/04 03:49:17;;;;;;;5.47;4.80;;;;;;;15.70;90.72;96682.19;4977522;28;20051;-66
2023/06/04 03:51:43;;;;;;;;;;;;;;;15.49;93.07;96681.63;4978134;28;20121;-66
2023/06/04 03:54:16;;;;;;;7.53;5.45;;;;;;;15.87;92.05;96686.50;4977531;28;19977;-67
2023/06/04 03:56:44;;;;;;;12.90;5.15;;;;;;;15.51;93.41;96685.03;4977615;28;20460;-68
2023/06/04 03:59:11;;;;;;;10.60;5.18;;;;;;;15.83;92.71;96694.69;4978298;28;20493;-67
2023/06/04 04:01:39;;;;;;;9.48;4.75;;;;;;;16.07;90.13;96695.09;4977369;28;20047;-67
2023/06/04 04:04:06;;;;;;;11.43;5.13;;;;;;;15.49;93.11;96700.94;4978087;28;20125;-67
2023/06/04 04:06:33;;;;;;;9.07;5.25;;;;;;;15.45;93.78;96693.28;4991993;28;20123;-68
2023/06/04 04:09:00;;;;;;;7.10;4.78;;;;;;;15.45;94.64;96696.75;4977340;28;20047;-67
2023/06/04 04:11:29;;;;;;;7.63;5.03;;;;;;;15.49;95.15;96692.16;4977218;28;20481;-67
2023/06/04 04:13:56;;;;;;;6.45;5.50;;;;;;;15.70;92.93;96699.78;4977189;28;20117;-67
2023/06/04 04:16:23;;;;;;;9.90;5.03;;;;;;;15.71;92.89;96698.88;4977209;28;20057;-67
2023/06/04 04:18:50;;;;;;;6.53;5.30;;;;;;;15.92;93.40;96708.19;4993785;28;20052;-67
2023/06/04 04:21:17;;;;;;;8.27;5.63;;;;;;;15.77;92.72;96703.78;4996713;28;20054;-67
2023/06/04 04:23:46;;;;;;;6.93;5.13;;;;;;;15.64;95.22;96701.84;4996448;28;20104;-67
2023/06/04 04:26:16;;;;;;;6.25;5.10;;;;;;;15.66;95.48;96693.88;4996512;28;20056;-68
2023/06/04 04:28:45;;;;;;;6.40;5.05;;;;;;;15.68;95.15;96696.41;4996515;28;20046;-67
2023/06/04 04:31:12;;;;;;;5.68;4.85;;;;;;;15.73;94.48;96702.25;4994201;28;20484;-67
2023/06/04 04:33:40;;;;;;;6.25;4.90;;;;;;;15.78;94.96;96708.97;4976816;28;20138;-68
2023/06/04 04:36:12;;;;;;;5.88;4.68;;;;;;;15.84;94.64;96712.22;4976949;28;20121;-67
2023/06/04 04:38:39;;;;;;;5.82;5.20;;;;;;;15.96;92.80;96708.03;4976822;28;20057;-67
2023/06/04 04:41:08;;;;;;;8.45;5.30;;;;;;;15.87;91.28;96710.25;4976313;28;20126;-68
2023/06/04 04:43:37;;;;;;;5.03;4.28;;;;;;;15.81;91.33;96710.59;4977652;28;20485;-68
2023/06/04 04:46:06;;;;;;;6.97;4.68;;;;;;;15.81;91.80;96715.88;4995941;28;20054;-67
2023/06/04 04:48:34;;;;;;;11.48;5.05;;;;;;;15.85;92.35;96716.53;4996068;28;20503;-67
2023/06/04 04:51:01;;;;;;;12.90;4.93;;;;;;;15.94;92.76;96723.09;4995898;28;20153;-67
2023/06/04 04:53:28;;;;;;;5.88;5.05;;;;;;;16.01;93.15;96724.47;4995841;28;20073;-68
2023/06/04 04:55:56;;;;;;;11.57;4.93;;;;;;;16.10;93.43;96720.47;4985512;28;20082;-67
2023/06/04 04:58:23;;;;;;;7.47;4.63;;;;;;;16.14;93.13;96722.00;4976434;28;20403;-67
2023/06/04 05:00:50;;;;;;;7.05;4.70;;;;;;;16.21;92.92;96725.09;4976656;28;20046;-67
2023/06/04 05:03:19;;;;;;;8.20;4.75;;;;;;;16.25;92.42;96730.13;4976503;28;20109;-67
2023/06/04 05:05:47;;;;;;;10.32;5.15;;;;;;;16.29;91.78;96734.28;4976390;28;20055;-67
2023/06/04 05:08:14;;;;;;;6.72;5.00;;;;;;;16.36;92.24;96726.00;4977053;28;20057;-67
2023/06/04 05:10:41;;;;;;;5.45;4.22;;;;;;;16.40;92.05;96740.72;4976222;28;20058;-67
2023/06/04 05:13:08;;;;;;;9.80;4.20;;;;;;;16.41;91.26;96730.06;4976197;28;20091;-67
2023/06/04 05:15:36;;;;;;;8.05;4.78;;;;;;;16.44;91.29;96736.13;4981937;28;20306;-68
2023/06/04 05:18:04;;;;;;;11.77;4.15;;;;;;;16.45;90.10;96738.66;4995244;28;20058;-67
2023/06/04 05:20:35;;;;;;;8.75;4.28;;;;;;;16.79;87.91;96744.59;4995387;28;20510;-67
2023/06/04 05:35:41;;;;;;;7.13;4.93;;;;;;;17.66;85.40;96754.31;5070255;28;20390;-67
2023/06/04 05:38:08;;;;;;;6.68;4.57;;;;;;;17.56;85.59;96758.50;5070395;28;20045;-67
2023/06/04 05:40:35;;;;;;;9.38;4.82;;;;;;;17.56;86.26;96758.50;5069992;28;20059;-67
2023/06/04 05:43:03;;;;;;;8.02;4.82;;;;;;;17.52;85.98;96762.28;5070103;28;20047;-68
2023/06/04 05:45:30;;;;;;;15.65;5.30;;;;;;;17.48;86.37;96761.63;5070116;28;20452;-68
2023/06/04 05:47:57;;;;;;;8.15;5.47;;;;;;;17.70;86.15;96765.53;5070053;28;20126;-67
2023/06/04 05:50:25;;;;;;;13.95;5.30;;;;;;;17.62;86.83;96770.47;5069691;28;20051;-66
2023/06/04 05:52:54;;;;;;;11.88;5.82;;;;;;;17.69;86.41;96771.78;5069837;28;20052;-67
2023/06/04 05:55:21;;;;;;;9.15;5.68;;;;;;;17.68;86.93;96778.88;5069936;28;20048;-68
2023/06/04 05:57:51;;;;;;;7.20;5.65;;;;;;;17.72;87.24;96779.53;5069821;28;20045;-67
2023/06/04 06:00:19;;;;;;;9.63;5.78;;;;;;;17.81;85.99;96781.59;5069920;28;20131;-67
2023/06/04 06:02:48;;;;;;;6.40;5.30;;;;;;;17.79;81.97;96786.13;5069319;28;20106;-67
2023/06/04 06:05:15;;;;;;;7.95;5.32;;;;;;;17.83;83.45;96786.78;5069629;28;20102;-67
2023/06/04 06:07:43;;;;;;;8.48;5.00;;;;;;;17.86;84.04;96797.19;5069826;28;20048;-67
2023/06/04 06:10:12;;;;;;;7.40;5.88;;;;;;;17.88;82.73;96789.16;5069653;28;20132;-67
2023/06/04 06:12:40;;;;;;;7.25;4.60;;;;;;;17.93;80.80;96790.53;5069689;28;20498;-67
2023/06/04 06:15:08;;;;;;;6.00;4.50;;;;;;;17.99;80.09;96801.66;5068572;28;20049;-68
2023/06/04 06:17:35;;;;;;;9.70;5.07;;;;;;;18.01;78.42;96800.66;5069550;28;20179;-67
2023/06/04 06:20:05;;;;;;;5.90;5.20;;;;;;;18.05;78.73;96803.94;5069416;28;20053;-67
2023/06/04 06:22:33;;;;;;;10.68;5.18;;;;;;;18.06;78.38;96801.19;5069228;28;20073;-68
2023/06/04 06:25:02;;;;;;;7.30;5.00;;;;;;;18.06;78.31;96810.91;5068691;28;20099;-69
2023/06/04 06:27:31;;;;;;;5.85;4.85;;;;;;;18.07;78.86;96799.41;5069288;28;20060;-69
2023/06/04 06:29:59;;;;;;;10.43;5.43;;;;;;;18.06;79.52;96811.78;5069033;28;20041;-69
2023/06/04 06:32:27;;;;;;;8.88;4.97;;;;;;;18.05;79.75;96819.81;5069103;28;20056;-67
2023/06/04 06:34:54;;;;;;;7.45;4.90;;;;;;;17.99;79.61;96821.06;5064557;28;20052;-65
2023/06/04 06:37:21;;;;;;;14.07;5.35;;;;;;;17.97;81.03;96820.28;5055842;28;20053;-67
2023/06/04 06:39:49;;;;;;;8.48;5.57;;;;;;;17.93;81.14;96821.44;5055831;28;20077;-62
2023/06/04 06:42:17;;;;;;;6.95;5.30;;;;;;;17.87;81.84;96822.69;5055479;28;20434;-68
2023/06/04 06:44:46;;;;;;;7.03;5.53;;;;;;;17.83;82.84;96821.19;5054002;28;20051;-67
2023/06/04 06:47:14;;;;;;;8.63;5.75;;;;;;;17.79;84.19;96824.97;5053797;28;20498;-68
2023/06/04 06:49:41;;;;;;;10.32;6.25;;;;;;;17.84;84.53;96830.81;5055669;28;20041;-67
2023/06/04 06:52:09;;;;;;;10.45;6.10;;;;;;;17.80;84.83;96832.81;5055629;28;20053;-67
2023/06/04 06:54:36;;;;;;;7.15;5.90;;;;;;;17.78;85.74;96842.63;5055234;28;20049;-67
2023/06/04 06:57:08;;;;;;;18.58;6.05;;;;;;;17.74;85.47;96842.91;5055347;28;20498;-67
2023/06/04 06:59:36;;;;;;;9.63;5.60;;;;;;;17.66;85.83;96846.91;5055518;28;20118;-67
2023/06/04 07:02:06;;;;;;;5.95;5.43;;;;;;;17.64;87.02;96847.94;5055425;28;20064;-66
2023/06/04 07:04:34;;;;;;;8.25;5.28;;;;;;;17.59;85.82;96856.16;5055459;28;20045;-67
2023/06/04 07:07:01;;;;;;;7.57;5.10;;;;;;;17.52;84.99;96857.47;5054787;28;20045;-67
2023/06/04 07:09:29;;;;;;;5.97;5.38;;;;;;;17.41;83.85;96859.00;5055069;28;20056;-67
2023/06/04 07:11:56;;;;;;;12.93;6.10;;;;;;;17.44;84.10;96857.94;5055264;28;20055;-67
2023/06/04 07:14:24;;;;;;;9.05;5.07;;;;;;;17.49;85.25;96855.03;5055161;28;20048;-67
2023/06/04 07:16:53;;;;;;;11.68;6.07;;;;;;;17.54;85.89;96863.50;5055155;28;20060;-67
2023/06/04 07:19:22;;;;;;;9.85;5.47;;;;;;;17.61;84.49;96867.47;5053862;28;20068;-67
2023/06/04 07:21:49;;;;;;;6.05;5.32;;;;;;;17.62;85.26;96868.34;5054463;28;20052;-67
2023/06/04 07:24:17;;;;;;;10.32;5.30;;;;;;;17.62;86.01;96871.84;5054946;28;20052;-67
2023/06/04 07:26:44;;;;;;;6.22;5.63;;;;;;;17.57;87.69;96878.38;5054895;28;20071;-66
2023/06/04 07:29:12;;;;;;;8.18;6.53;;;;;;;17.63;87.37;96870.03;5054930;28;20057;-67
2023/06/04 07:31:40;;;;;;;6.95;5.57;;;;;;;17.67;87.76;96874.22;5054246;28;20076;-67
2023/06/04 07:34:08;;;;;;;5.57;5.07;;;;;;;17.71;87.89;96877.50;5054270;28;20048;-67
2023/06/04 07:36:37;;;;;;;9.63;5.05;;;;;;;17.74;87.65;96880.81;5054673;28;20084;-67
2023/06/04 07:39:04;;;;;;;6.10;5.35;;;;;;;17.75;87.61;96882.50;5054684;28;20403;-67
2023/06/04 07:41:32;;;;;;;7.85;5.80;;;;;;;17.77;88.62;96887.69;5054595;28;20107;-67
2023/06/04 07:44:00;;;;;;;7.28;6.18;;;;;;;17.78;88.61;96892.91;5054173;28;20045;-67
2023/06/04 07:46:27;;;;;;;6.07;4.53;;;;;;;17.72;86.52;96892.41;5053723;28;20095;-67
2023/06/04 07:48:55;;;;;;;9.45;5.38;;;;;;;17.61;87.21;96893.09;5054322;28;20049;-66
2023/06/04 07:51:22;;;;;;;8.68;5.95;;;;;;;17.63;88.24;96897.34;5054302;28;20068;-67
2023/06/04 07:53:51;;;;;;;8.98;6.57;;;;;;;17.67;88.94;96898.84;5054442;28;20059;-66
2023/06/04 07:56:19;;;;;;;11.23;7.38;;;;;;;17.68;87.95;96897.91;5054152;28;20045;-66
2023/06/04 07:58:46;;;;;;;15.82;7.30;;;;;;;17.71;88.61;96906.59;5054107;28;20049;-66
2023/06/04 08:01:15;;;;;;;8.52;6.82;;;;;;;17.75;89.24;96905.44;5054435;28;20093;-66
2023/06/04 08:03:42;;;;;;;12.65;6.78;;;;;;;17.76;88.52;96902.72;5053329;28;20045;-67
2023/06/04 08:06:14;;;;;;;8.15;7.35;;;;;;;17.77;87.41;96906.22;5053349;28;20124;-66
2023/06/04 08:08:45;;;;;;;14.48;8.27;;;;;;;17.76;87.44;96915.94;5054108;28;20049;-66
2023/06/04 08:11:13;;;;;;;;;;;;;;;17.76;87.92;96920.41;5054470;28;20107;-67
2023/06/04 08:13:41;;;;;;;12.65;9.00;;;;;;;17.73;88.52;96918.78;5054099;28;19920;-66
2023/06/04 08:16:09;;;;;;;10.63;9.52;;;;;;;17.71;89.52;96922.47;5053152;28;20051;-66
2023/06/04 08:18:39;;;;;;;10.27;9.13;;;;;;;17.72;88.96;96924.16;5053593;28;20045;-66
2023/06/04 08:21:07;;;;;;;13.98;9.23;;;;;;;17.66;86.39;96926.25;5053725;28;20056;-65
2023/06/04 08:23:34;;;;;;;10.15;8.98;;;;;;;17.54;86.95;96937.56;5053818;28;20041;-66
2023/06/04 08:26:01;;;;;;;9.30;8.30;;;;;;;17.32;86.68;96933.56;5053815;28;20071;-65
2023/06/04 08:28:30;;;;;;;12.20;7.93;;;;;;;17.15;85.71;96934.53;5053557;28;20131;-66
2023/06/04 08:30:58;;;;;;;9.77;7.38;;;;;;;17.09;86.66;96926.97;5053725;28;20128;-67
2023/06/04 08:33:26;;;;;;;8.88;7.25;;;;;;;16.95;85.88;96927.75;5053335;28;20056;-64
2023/06/04 08:35:53;;;;;;;7.90;7.15;;;;;;;17.05;86.93;96931.56;5052765;28;20449;-61
2023/06/04 08:38:21;;;;;;;9.93;8.93;;;;;;;17.10;85.95;96931.34;5053659;28;20380;-64
2023/06/04 08:40:54;;;;;;;15.38;8.98;;;;;;;17.19;87.76;96936.09;5053458;28;20110;-62
2023/06/04 08:43:22;;;;;;;13.00;8.38;;;;;;;17.32;88.58;96933.56;5053472;28;20052;-60
2023/06/04 08:45:51;;;;;;;12.55;8.30;;;;;;;17.45;88.60;96932.84;5053084;28;20091;-61
2023/06/04 08:48:23;;;;;;;14.45;8.80;;;;;;;17.55;87.93;96936.63;5053332;28;20490;-63
2023/06/04 08:50:52;;;;;;;10.13;8.73;;;;;;;17.66;88.93;96941.25;5053119;28;20398;-62
2023/06/04 08:53:21;;;;;;;9.95;8.15;;;;;;;17.75;88.99;96938.06;5053305;28;20049;-61
2023/06/04 08:55:51;;;;;;;10.48;8.40;;;;;;;17.80;90.25;96938.66;5053390;28;20072;-63
2023/06/04 08:58:20;;;;;;;8.95;7.90;;;;;;;17.86;90.04;96936.56;5052605;28;20041;-61
2023/06/04 09:00:48;;;;;;;11.65;8.15;;;;;;;17.94;91.16;96942.22;5053193;28;20477;-62
2023/06/04 09:03:19;;;;;;;9.15;7.90;;;;;;;18.08;90.46;96935.22;5053164;28;20071;-62
2023/06/04 09:05:50;;;;;;;7.25;6.55;;;;;;;18.15;87.78;96944.53;5053021;28;20053;-61
2023/06/04 09:08:19;;;;;;;10.65;7.43;;;;;;;18.21;88.05;96945.94;5053167;28;20045;-62
2023/06/04 09:10:49;;;;;;;11.20;9.70;;;;;;;18.28;87.87;96940.16;5052553;28;20052;-62
2023/06/04 09:13:18;;;;;;;9.63;8.00;;;;;;;18.30;87.86;96945.34;5053170;28;20049;-64
2023/06/04 09:15:45;;;;;;;9.48;8.57;;;;;;;18.34;87.97;96941.56;5053039;28;20124;-63
2023/06/04 09:18:13;;;;;;;12.48;7.50;;;;;;;18.38;85.79;96951.00;5052591;28;20053;-61
2023/06/04 09:20:43;;;;;;;11.13;8.02;;;;;;;18.46;86.32;96950.53;5053169;28;20125;-61
2023/06/04 09:23:17;;;;;;;12.80;8.10;;;;;;;18.50;85.66;96948.50;5053018;28;20051;-60
2023/06/04 09:25:44;;;;;;;7.50;6.30;;;;;;;18.54;85.23;96950.00;5052884;28;20787;-61
2023/06/04 09:28:12;;;;;;;7.78;6.70;;;;;;;18.54;83.25;96952.66;5052641;28;20049;-63
2023/06/04 09:30:52;;;;;;;8.73;6.93;;;;;;;18.60;84.65;96948.78;5052809;28;20095;-64
2023/06/04 09:33:21;;;;;;;9.18;6.40;;;;;;;18.59;83.38;96950.59;5052501;28;20402;-62
2023/06/04 09:35:57;;;;;;;8.70;7.88;;;;;;;18.65;82.05;96950.19;5052506;28;20053;-61
2023/06/04 09:38:24;;;;;;;10.35;6.68;;;;;;;18.72;83.01;96955.94;5052822;28;20127;-63
2023/06/04 09:40:51;;;;;;;10.05;6.20;;;;;;;18.76;82.50;96946.00;5052966;28;20080;-63
2023/06/04 09:43:24;;;;;;;10.55;6.90;;;;;;;18.80;81.93;96951.00;5052811;28;20049;-64
2023/06/04 09:45:52;;;;;;;6.30;5.70;;;;;;;18.91;81.92;96955.56;5052443;28;20449;-61
2023/06/04 09:48:23;;;;;;;11.25;9.60;;;;;;;19.04;81.31;96947.69;5052791;28;20516;-64
2023/06/04 09:50:54;;;;;;;7.68;6.38;;;;;;;19.16;80.53;96955.81;5052678;28;20057;-62
2023/06/04 09:53:25;;;;;;;10.48;6.45;;;;;;;19.28;79.84;96948.84;5052820;28;20482;-64
2023/06/04 09:55:58;;;;;;;10.25;7.38;;;;;;;19.41;77.97;96947.06;5052650;28;20453;-62
2023/06/04 09:58:29;;;;;;;14.70;6.78;;;;;;;19.53;76.56;96941.84;5052263;28;20045;-61
2023/06/04 10:00:58;;;;;;;9.65;6.93;;;;;;;19.63;76.01;96948.22;5052492;28;20110;-63
2023/06/04 10:03:27;;;;;;;9.85;6.20;;;;;;;19.69;74.61;96944.34;5052635;28;20557;-62
2023/06/04 10:05:57;;;;;;;10.07;5.25;;;;;;;19.83;73.99;96946.00;5052477;28;20057;-63
2023/06/04 10:08:27;;;;;;;7.13;5.03;;;;;;;19.98;72.92;96938.78;5052460;28;20139;-62
2023/06/04 10:10:57;;;;;;;8.52;5.03;;;;;;;20.11;73.93;96944.13;5053402;28;20080;-64
2023/06/04 10:13:27;;;;;;;11.05;5.65;;;;;;;20.24;68.59;96940.59;5055735;28;20128;-64
2023/06/04 10:15:57;;;;;;;7.97;6.03;;;;;;;20.39;72.42;96934.19;5054866;28;20045;-64
2023/06/04 10:18:25;;;;;;;11.23;5.78;;;;;;;20.54;71.09;96939.34;5056191;28;20045;-62
2023/06/04 10:20:56;;;;;;;15.50;5.93;;;;;;;20.65;71.88;96938.56;5055456;28;20409;-64
2023/06/04 10:23:25;;;;;;;11.75;5.78;;;;;;;20.71;70.34;96941.63;5055220;28;20045;-62
2023/06/04 10:25:53;;;;;;;6.55;5.60;;;;;;;20.78;71.47;96942.03;5055407;28;20048;-61
2023/06/04 10:28:22;;;;;;;6.90;5.80;;;;;;;20.71;70.29;96938.97;5054730;28;20453;-64
2023/06/04 10:30:50;;;;;;;7.55;5.68;;;;;;;20.63;68.61;96941.34;5055649;28;20502;-65
2023/06/04 10:33:20;;;;;;;8.38;5.50;;;;;;;20.67;69.62;96937.50;5055703;28;20170;-62
2023/06/04 10:35:47;;;;;;;9.93;5.50;;;;;;;20.74;69.93;96940.53;5055479;28;20041;-65
2023/06/04 10:38:16;;;;;;;9.38;5.25;;;;;;;20.84;71.42;96940.72;5055874;28;20080;-63
2023/06/04 10:40:45;;;;;;;15.05;5.38;;;;;;;21.02;71.42;96940.34;5055938;28;20056;-62
2023/06/04 10:43:14;;;;;;;10.13;4.97;;;;;;;21.15;70.86;96941.13;5055884;28;20099;-65
2023/06/04 10:45:42;;;;;;;6.55;5.15;;;;;;;21.29;70.28;96936.56;5055814;28;20049;-62
2023/06/04 10:48:15;;;;;;;10.52;6.10;;;;;;;21.39;69.19;96939.38;5055647;28;20052;-65
2023/06/04 10:50:53;;;;;;;12.38;5.18;;;;;;;21.28;67.12;96935.72;5055510;28;20084;-64
2023/06/04 10:53:22;;;;;;;6.75;5.07;;;;;;;21.25;65.68;96932.47;5055713;28;20099;-64
2023/06/04 10:55:52;;;;;;;7.47;4.72;;;;;;;21.11;66.57;96929.03;5055544;28;20067;-61
2023/06/04 10:58:20;;;;;;;7.00;4.38;;;;;;;21.20;64.52;96922.16;5055534;28;20080;-63
2023/06/04 11:00:49;;;;;;;10.20;4.60;;;;;;;21.14;64.04;96930.59;5055163;28;20136;-59
2023/06/04 11:03:17;;;;;;;9.07;4.65;;;;;;;21.08;64.33;96926.59;5055434;28;20194;-63
2023/06/04 11:05:50;;;;;;;7.70;4.28;;;;;;;21.31;67.19;96924.84;5055363;28;20049;-61
2023/06/04 11:08:29;;;;;;;7.63;4.25;;;;;;;21.51;62.94;96924.28;5055286;28;20505;-64
2023/06/04 11:10:59;;;;;;;8.07;4.70;;;;;;;21.54;62.34;96927.56;5055237;28;20049;-63
2023/06/04 11:13:27;;;;;;;6.03;5.10;;;;;;;21.70;65.97;96921.06;5054857;28;20049;-65
2023/06/04 11:15:59;;;;;;;5.93;4.38;;;;;;;21.93;66.32;96918.44;5055177;28;20486;-63
2023/06/04 11:18:27;;;;;;;6.80;4.32;;;;;;;22.03;65.08;96915.91;5055133;28;20103;-63
2023/06/04 11:21:03;;;;;;;5.35;3.78;;;;;;;22.30;62.69;96902.19;5053987;28;20053;-63
2023/06/04 11:23:30;;;;;;;9.88;5.20;;;;;;;22.50;65.59;96907.75;5055057;28;20058;-64
2023/06/04 11:26:01;;;;;;;10.80;4.60;;;;;;;22.47;61.66;96915.97;5054805;28;20099;-63
2023/06/04 11:28:30;;;;;;;9.88;4.55;;;;;;;22.34;62.73;96914.28;5054948;28;20056;-65
2023/06/04 11:31:02;;;;;;;9.15;5.20;;;;;;;22.00;61.38;96917.00;5054643;28;20052;-61
2023/06/04 11:33:31;;;;;;;9.02;5.22;;;;;;;21.76;62.36;96912.63;5053903;28;20049;-62
2023/06/04 11:36:03;;;;;;;10.05;5.20;;;;;;;21.79;60.89;96911.56;5054716;28;20398;-64
2023/06/04 11:38:31;;;;;;;12.35;5.10;;;;;;;21.91;63.37;96912.41;5054140;28;20128;-63
2023/06/04 11:41:05;;;;;;;9.85;6.03;;;;;;;22.14;67.40;96909.72;5053871;28;20052;-61
2023/06/04 11:43:39;;;;;;;6.28;4.63;;;;;;;22.28;66.84;96916.63;5054278;28;20037;-62
2023/06/04 11:46:10;;;;;;;9.55;5.00;;;;;;;22.33;67.18;96909.09;5054406;28;20056;-62
2023/06/04 11:48:39;;;;;;;9.50;5.05;;;;;;;22.31;66.47;96905.72;5054040;28;20053;-65